Time;durP1;ratioP1;P1;durP2;ratioP2;P2;SDS_P1;SDS_P2;PMS_P1;PMS_P2;Temp;Humidity;BMP_temperature;BMP_pressure;BME280_temperature;BME280_humidity;BME280_pressure;Samples;Min_cycle;Max_cycle;Signal;HPM_P1;HPM_P2
2021/08/30 00:02:25;;;;;;;10.07;4.63;;;;;;;25.75;52.75;100435.44;5052031;28;20094;-69
2021/08/30 00:04:55;;;;;;;13.52;4.63;;;;;;;25.74;52.99;100424.69;5049826;28;20443;-69
2021/08/30 00:07:28;;;;;;;11.15;4.70;;;;;;;25.75;52.73;100429.16;5049102;28;20061;-69
2021/08/30 00:09:58;;;;;;;10.20;4.03;;;;;;;25.76;52.40;100431.78;5047390;28;20049;-69
2021/08/30 00:12:28;;;;;;;12.05;4.35;;;;;;;25.71;52.33;100427.59;5051718;28;20049;-68
2021/08/30 00:14:57;;;;;;;11.45;4.60;;;;;;;25.72;52.54;100423.94;5048737;28;20041;-69
2021/08/30 00:17:26;;;;;;;10.88;4.50;;;;;;;25.70;52.36;100424.00;5050268;28;20037;-70
2021/08/30 00:19:56;;;;;;;9.65;4.60;;;;;;;25.69;52.08;100416.84;5048540;28;20065;-69
2021/08/30 00:22:23;;;;;;;12.90;4.18;;;;;;;25.67;51.69;100423.28;5042792;28;20044;-69
2021/08/30 00:24:55;;;;;;;9.60;3.92;;;;;;;25.67;51.82;100418.75;5047889;28;20041;-70
2021/08/30 00:27:23;;;;;;;9.65;4.38;;;;;;;25.63;51.85;100419.88;5051632;28;20041;-69
2021/08/30 00:29:51;;;;;;;11.25;4.25;;;;;;;25.52;51.83;100414.13;5045342;28;20075;-69
2021/08/30 00:32:20;;;;;;;9.63;4.32;;;;;;;25.53;51.76;100420.41;5050705;28;20500;-69
2021/08/30 00:35:06;;;;;;;12.05;4.85;;;;;;;25.35;52.71;100427.59;5049891;28;20079;-68
2021/08/30 00:37:41;;;;;;;11.05;4.82;;;;;;;25.23;53.03;100422.81;5049529;28;20037;-69
2021/08/30 00:40:10;;;;;;;13.77;4.82;;;;;;;25.33;52.69;100426.81;5027365;28;20036;-69
2021/08/30 00:42:37;;;;;;;10.55;4.43;;;;;;;25.31;52.36;100424.19;5048046;28;20048;-68
2021/08/30 00:45:08;;;;;;;8.63;4.45;;;;;;;25.35;52.25;100409.56;5044150;28;20128;-68
2021/08/30 00:47:38;;;;;;;10.80;4.43;;;;;;;25.43;52.09;100417.28;5043899;28;20037;-68
2021/08/30 00:50:09;;;;;;;9.55;3.95;;;;;;;25.43;51.57;100422.69;5050708;28;20067;-69
2021/08/30 00:52:39;;;;;;;8.65;4.00;;;;;;;25.32;51.93;100425.06;5051068;28;20118;-69
2021/08/30 00:55:10;;;;;;;10.88;4.32;;;;;;;25.34;51.87;100415.91;5050436;28;20041;-69
2021/08/30 00:57:38;;;;;;;10.25;4.03;;;;;;;25.39;51.66;100418.41;5050356;28;20504;-69
2021/08/30 01:00:09;;;;;;;9.23;4.10;;;;;;;25.42;51.72;100418.22;5049492;28;20405;-69
2021/08/30 01:02:49;;;;;;;11.95;4.10;;;;;;;25.40;51.49;100414.75;5054848;28;20119;-69
2021/08/30 01:05:17;;;;;;;9.80;3.90;;;;;;;25.40;51.46;100417.47;5029577;28;20045;-69
2021/08/30 01:08:06;;;;;;;9.83;4.27;;;;;;;25.30;51.77;100421.56;5049327;28;20535;-69
2021/08/30 01:10:50;;;;;;;8.80;4.10;;;;;;;25.16;52.16;100422.25;5048836;28;20099;-68
2021/08/30 01:13:25;;;;;;;9.10;4.30;;;;;;;25.15;52.04;100415.09;5051732;28;20059;-69
2021/08/30 01:15:54;;;;;;;8.23;3.95;;;;;;;25.20;51.80;100421.16;5045672;28;20049;-69
2021/08/30 01:18:28;;;;;;;7.32;3.72;;;;;;;25.21;51.56;100422.88;5059610;28;20400;-69
2021/08/30 01:21:04;;;;;;;9.23;3.85;;;;;;;25.16;51.83;100414.16;5050929;28;20048;-69
2021/08/30 01:23:38;;;;;;;8.10;4.07;;;;;;;25.22;51.94;100418.34;5045210;28;20128;-69
2021/08/30 01:26:13;;;;;;;8.63;4.00;;;;;;;25.24;51.59;100419.16;5050169;28;20048;-69
2021/08/30 01:28:58;;;;;;;9.75;3.78;;;;;;;25.26;51.66;100417.28;5050358;28;20079;-69
2021/08/30 01:31:34;;;;;;;15.90;4.50;;;;;;;25.19;51.68;100411.31;5048575;28;20401;-68
2021/08/30 01:34:03;;;;;;;9.38;3.50;;;;;;;25.15;51.32;100420.50;5050034;28;20099;-69
2021/08/30 01:36:33;;;;;;;11.38;4.18;;;;;;;25.06;51.76;100412.88;5050443;28;20053;-69
2021/08/30 01:39:02;;;;;;;10.25;4.65;;;;;;;25.07;51.85;100411.91;5049715;28;20055;-69
2021/08/30 01:41:30;;;;;;;9.73;3.72;;;;;;;25.08;51.45;100418.16;5048690;28;20405;-69
2021/08/30 01:44:01;;;;;;;7.90;4.28;;;;;;;25.07;51.48;100406.53;5048894;28;20084;-69
2021/08/30 01:46:30;;;;;;;13.30;5.10;;;;;;;25.08;51.49;100416.34;5044427;28;20045;-68
2021/08/30 01:49:00;;;;;;;8.20;4.13;;;;;;;24.89;51.89;100418.19;5050073;28;20067;-68
2021/08/30 01:51:30;;;;;;;10.50;4.20;;;;;;;24.80;52.00;100418.66;5049375;28;20045;-69
2021/08/30 01:53:59;;;;;;;10.68;4.25;;;;;;;24.84;51.80;100421.09;5050025;28;20045;-69
2021/08/30 01:56:30;;;;;;;9.35;4.93;;;;;;;24.94;51.72;100418.88;5049127;28;20045;-69
2021/08/30 02:01:48;;;;;;;12.60;4.60;;;;;;;24.97;51.15;100414.19;5037088;28;20064;-69
2021/08/30 02:04:16;;;;;;;11.50;4.25;;;;;;;24.90;51.29;100415.44;5048739;28;20120;-69
2021/08/30 02:06:45;;;;;;;13.10;4.03;;;;;;;24.96;51.19;100409.72;5048231;28;20048;-69
2021/08/30 02:09:20;;;;;;;10.80;3.70;;;;;;;24.95;51.18;100407.09;5049501;28;20049;-69
2021/08/30 02:11:50;;;;;;;8.65;3.53;;;;;;;24.97;51.08;100407.91;5048389;28;20126;-68
2021/08/30 02:14:17;;;;;;;8.90;3.60;;;;;;;24.92;50.98;100410.84;5044922;28;20415;-68
2021/08/30 02:16:48;;;;;;;10.50;3.90;;;;;;;24.87;51.08;100409.28;5049834;28;20037;-68
2021/08/30 02:19:21;;;;;;;8.13;3.95;;;;;;;24.86;51.24;100413.81;5048476;28;20400;-68
2021/08/30 02:21:54;;;;;;;9.93;3.88;;;;;;;24.87;51.10;100420.97;5048074;28;20102;-69
2021/08/30 02:24:46;;;;;;;10.05;3.72;;;;;;;24.89;50.87;100419.09;5046803;28;20063;-69
2021/08/30 02:27:19;;;;;;;9.23;4.03;;;;;;;24.82;51.05;100438.31;5048824;28;20041;-69
2021/08/30 02:29:53;;;;;;;8.73;4.05;;;;;;;24.72;51.36;100435.22;5048743;28;20057;-69
2021/08/30 02:32:27;;;;;;;9.40;4.70;;;;;;;24.74;51.07;100435.16;5046792;28;20051;-69
2021/08/30 02:34:57;;;;;;;9.13;4.10;;;;;;;24.80;50.73;100435.72;5045050;28;20060;-68
2021/08/30 02:37:32;;;;;;;9.43;4.40;;;;;;;24.72;51.03;100434.31;5045564;28;20068;-70
2021/08/30 02:40:02;;;;;;;9.40;4.53;;;;;;;24.76;50.70;100442.19;5038321;28;20051;-69
2021/08/30 02:42:32;;;;;;;12.73;4.45;;;;;;;24.80;50.71;100440.25;5055359;28;20107;-69
2021/08/30 02:45:01;;;;;;;7.40;3.80;;;;;;;24.82;50.50;100443.72;5051352;28;20056;-69
2021/08/30 02:47:32;;;;;;;11.60;4.65;;;;;;;24.82;50.12;100450.00;5046951;28;20064;-69
2021/08/30 02:50:02;;;;;;;10.02;3.90;;;;;;;24.80;50.19;100437.53;5047930;28;20037;-69
2021/08/30 02:52:33;;;;;;;8.18;3.95;;;;;;;24.77;50.33;100437.69;5051530;28;20562;-69
2021/08/30 02:55:02;;;;;;;9.68;4.03;;;;;;;24.77;50.16;100440.38;5043181;28;20033;-69
2021/08/30 02:57:32;;;;;;;7.30;3.80;;;;;;;24.80;50.02;100448.34;5044528;28;20131;-69
2021/08/30 03:00:00;;;;;;;10.68;3.83;;;;;;;24.79;50.10;100449.28;5051452;28;20048;-68
2021/08/30 03:02:28;;;;;;;10.65;4.28;;;;;;;24.78;50.10;100451.13;5048478;28;20064;-69
2021/08/30 03:04:58;;;;;;;7.82;4.05;;;;;;;24.78;49.87;100448.41;5052636;28;20052;-69
2021/08/30 03:07:48;;;;;;;9.50;3.28;;;;;;;24.77;49.76;100451.19;5040974;28;20052;-69
2021/08/30 03:10:16;;;;;;;9.98;4.13;;;;;;;24.75;49.99;100455.78;5049074;28;20403;-68
2021/08/30 03:12:47;;;;;;;6.90;3.38;;;;;;;24.70;49.94;100456.00;5041987;28;20127;-68
2021/08/30 03:15:21;;;;;;;13.85;3.92;;;;;;;24.67;49.87;100455.28;5063355;28;20164;-69
2021/08/30 03:17:53;;;;;;;9.40;3.83;;;;;;;24.69;49.98;100453.38;5052548;28;20052;-69
2021/08/30 03:20:25;;;;;;;8.40;3.55;;;;;;;24.73;49.60;100460.38;5054317;28;20056;-69
2021/08/30 03:22:58;;;;;;;7.22;3.17;;;;;;;24.70;49.45;100450.59;5048520;28;20041;-69
2021/08/30 03:25:33;;;;;;;11.05;4.22;;;;;;;24.71;49.45;100457.75;5052637;28;20055;-69
2021/08/30 03:28:19;;;;;;;8.93;3.58;;;;;;;24.69;49.49;100454.25;5045352;28;20175;-69
2021/08/30 03:30:52;;;;;;;6.90;3.72;;;;;;;24.70;49.57;100452.41;5049914;28;20045;-69
2021/08/30 03:33:21;;;;;;;6.32;3.33;;;;;;;24.63;49.77;100458.09;5052574;28;20154;-69
2021/08/30 03:35:49;;;;;;;8.57;3.30;;;;;;;24.64;49.67;100461.69;5052863;28;20041;-69
2021/08/30 03:38:19;;;;;;;10.25;3.20;;;;;;;24.48;49.92;100471.47;5052936;28;20037;-68
2021/08/30 03:40:46;;;;;;;10.15;3.85;;;;;;;24.31;50.27;100472.22;5052704;28;20037;-69
2021/08/30 03:43:17;;;;;;;8.95;4.00;;;;;;;24.35;50.16;100475.69;5046501;28;20446;-69
2021/08/30 03:45:52;;;;;;;9.50;3.78;;;;;;;24.31;50.28;100488.41;5052951;28;20510;-69
2021/08/30 03:48:20;;;;;;;8.93;3.80;;;;;;;24.26;50.37;100492.28;5047982;28;20045;-69
2021/08/30 03:50:48;;;;;;;7.63;3.33;;;;;;;24.27;50.39;100492.22;5041331;28;20044;-69
2021/08/30 03:53:15;;;;;;;11.18;3.40;;;;;;;24.31;50.31;100496.50;5050122;28;20056;-68
2021/08/30 03:55:50;;;;;;;10.27;3.83;;;;;;;24.29;50.47;100489.41;5051516;28;20500;-69
2021/08/30 03:58:21;;;;;;;9.95;4.00;;;;;;;24.38;50.09;100484.50;5051599;28;20495;-69
2021/08/30 04:00:50;;;;;;;8.07;3.08;;;;;;;24.50;49.62;100489.31;5052555;28;20049;-69
2021/08/30 04:03:20;;;;;;;8.63;3.75;;;;;;;24.63;49.44;100495.91;5041181;28;20132;-69
2021/08/30 04:05:50;;;;;;;8.18;3.42;;;;;;;24.71;49.16;100495.56;5046082;28;20044;-68
2021/08/30 04:08:18;;;;;;;9.52;3.38;;;;;;;24.71;49.31;100505.47;5052029;28;20144;-68
2021/08/30 04:10:53;;;;;;;9.68;4.10;;;;;;;24.77;49.33;100497.09;5050351;28;20147;-69
2021/08/30 04:13:22;;;;;;;11.18;3.47;;;;;;;24.92;49.48;100499.09;5050886;28;20128;-69
2021/08/30 04:15:53;;;;;;;9.20;3.72;;;;;;;25.05;49.36;100500.25;5043380;28;20048;-68
2021/08/30 04:18:39;;;;;;;8.27;3.50;;;;;;;25.08;49.19;100497.41;5044772;28;20106;-68
2021/08/30 04:21:07;;;;;;;11.60;3.90;;;;;;;25.16;49.29;100503.31;5044390;28;20496;-67
2021/08/30 04:23:40;;;;;;;10.50;3.80;;;;;;;25.28;49.49;100502.72;5045808;28;20045;-70
2021/08/30 04:26:28;;;;;;;10.30;3.40;;;;;;;25.51;48.75;100503.41;5050680;28;20063;-70
2021/08/30 04:28:55;;;;;;;10.00;3.72;;;;;;;25.65;48.93;100501.81;5051831;28;20040;-69
2021/08/30 04:31:24;;;;;;;13.00;3.35;;;;;;;25.80;48.61;100505.53;5047696;28;20171;-69
2021/08/30 04:34:10;;;;;;;10.38;4.05;;;;;;;25.97;48.46;100502.84;5049600;28;20106;-68
2021/08/30 04:36:39;;;;;;;7.05;2.95;;;;;;;26.07;47.98;100506.81;5050951;28;20045;-69
2021/08/30 04:39:07;;;;;;;9.63;3.33;;;;;;;26.20;47.95;100509.72;5052699;28;20515;-69
2021/08/30 04:41:35;;;;;;;7.72;3.15;;;;;;;26.39;48.01;100509.66;5050487;28;20053;-69
2021/08/30 04:44:05;;;;;;;10.25;3.40;;;;;;;26.53;47.44;100512.50;5045397;28;20132;-68
2021/08/30 04:46:33;;;;;;;7.43;2.88;;;;;;;26.66;47.26;100510.88;5053618;28;20076;-68
2021/08/30 04:49:01;;;;;;;11.20;3.65;;;;;;;26.84;46.25;100509.88;5043196;28;20065;-69
2021/08/30 04:51:30;;;;;;;10.57;3.83;;;;;;;27.01;45.62;100514.38;5041661;28;20057;-69
2021/08/30 04:53:58;;;;;;;8.30;3.42;;;;;;;27.15;44.87;100519.91;5051539;28;20040;-69
2021/08/30 04:56:25;;;;;;;7.72;3.53;;;;;;;27.29;45.75;100513.69;5050987;28;20047;-69
2021/08/30 04:59:12;;;;;;;20.55;4.63;;;;;;;27.51;45.33;100519.59;5069334;28;20046;-69
2021/08/30 05:01:45;;;;;;;9.65;3.65;;;;;;;27.59;45.63;100514.63;5064969;28;20049;-68
2021/08/30 05:04:13;;;;;;;8.23;3.42;;;;;;;27.68;46.01;100527.66;5061493;28;20052;-68
2021/08/30 05:06:41;;;;;;;7.65;3.10;;;;;;;27.84;45.37;100521.31;5083747;28;20040;-69
2021/08/30 05:09:12;;;;;;;12.43;3.45;;;;;;;28.03;44.80;100517.41;5070462;28;20480;-69
2021/08/30 05:11:40;;;;;;;9.80;4.10;;;;;;;28.30;44.65;100514.00;5062782;28;20071;-68
2021/08/30 05:14:07;;;;;;;11.13;4.13;;;;;;;28.51;44.08;100510.81;5070291;28;20037;-68
2021/08/30 05:16:36;;;;;;;10.80;3.88;;;;;;;28.73;43.67;100514.91;5070622;28;20043;-69
2021/08/30 05:19:04;;;;;;;10.35;3.78;;;;;;;28.89;43.62;100513.84;5070869;28;20484;-69
2021/08/30 05:21:31;;;;;;;11.88;3.47;;;;;;;29.07;43.40;100522.69;5069523;28;20071;-69
2021/08/30 05:23:59;;;;;;;10.40;3.53;;;;;;;29.27;42.88;100518.66;5070258;28;20038;-69
2021/08/30 05:26:26;;;;;;;6.50;3.22;;;;;;;29.53;42.31;100519.69;5070360;28;20048;-69
2021/08/30 05:28:53;;;;;;;6.57;3.10;;;;;;;29.81;41.60;100526.84;5069810;28;20078;-69
2021/08/30 05:31:21;;;;;;;9.35;3.38;;;;;;;30.12;41.28;100529.25;5069931;28;20044;-69
2021/08/30 05:33:50;;;;;;;7.47;3.35;;;;;;;30.38;40.94;100536.50;5069857;28;20056;-69
2021/08/30 05:36:18;;;;;;;10.55;3.95;;;;;;;30.65;40.67;100533.69;5068286;28;20036;-69
2021/08/30 05:38:45;;;;;;;10.00;3.85;;;;;;;30.86;40.20;100536.69;5067726;28;20454;-69
2021/08/30 05:41:12;;;;;;;8.38;3.38;;;;;;;31.10;39.53;100528.66;5062512;28;20151;-68
2021/08/30 05:43:40;;;;;;;8.68;3.30;;;;;;;31.32;38.90;100522.44;5065047;28;20438;-68
2021/08/30 05:46:09;;;;;;;8.15;3.28;;;;;;;31.54;38.49;100528.94;5062789;28;20495;-68
2021/08/30 05:48:37;;;;;;;9.35;3.55;;;;;;;31.81;38.20;100528.72;5064552;28;20048;-68
2021/08/30 05:51:06;;;;;;;7.60;3.28;;;;;;;32.03;37.10;100531.53;5065616;28;20039;-69
2021/08/30 05:53:33;;;;;;;8.18;3.78;;;;;;;32.20;36.18;100529.41;5067343;28;20062;-69
2021/08/30 05:56:01;;;;;;;8.85;3.63;;;;;;;32.28;35.95;100532.41;5070251;28;20044;-69
2021/08/30 05:58:29;;;;;;;6.63;2.72;;;;;;;32.47;36.09;100545.50;5066772;28;20044;-69
2021/08/30 06:01:00;;;;;;;6.72;3.03;;;;;;;32.57;35.55;100533.69;5053051;28;20044;-69
2021/08/30 06:03:27;;;;;;;10.65;3.50;;;;;;;32.78;35.65;100534.75;5068541;28;20044;-69
2021/08/30 06:05:55;;;;;;;6.80;3.50;;;;;;;32.94;35.32;100537.13;5062796;28;20414;-69
2021/08/30 06:08:42;;;;;;;9.07;3.55;;;;;;;33.09;34.85;100529.50;5071588;28;20048;-69
2021/08/30 06:11:10;;;;;;;8.48;3.20;;;;;;;33.25;35.08;100531.88;5068669;28;20509;-69
2021/08/30 06:13:40;;;;;;;8.05;3.42;;;;;;;33.42;34.12;100529.47;5065337;28;20052;-69
2021/08/30 06:16:07;;;;;;;8.52;3.63;;;;;;;33.48;34.01;100530.81;5067491;28;20043;-69
2021/08/30 06:18:37;;;;;;;10.50;4.13;;;;;;;33.61;34.22;100532.41;5061977;28;20051;-70
2021/08/30 06:21:05;;;;;;;11.65;3.38;;;;;;;33.79;33.59;100535.53;5068254;28;20399;-70
2021/08/30 06:23:35;;;;;;;10.85;4.47;;;;;;;34.01;33.50;100540.88;5060490;28;20070;-70
2021/08/30 06:26:04;;;;;;;8.27;2.80;;;;;;;34.20;33.30;100536.59;5072646;28;20056;-69
2021/08/30 06:28:33;;;;;;;8.27;3.70;;;;;;;34.25;32.87;100548.91;5064979;28;20055;-69
2021/08/30 06:31:02;;;;;;;7.25;3.60;;;;;;;34.31;33.43;100551.13;5075046;28;20044;-70
2021/08/30 06:33:29;;;;;;;6.57;3.00;;;;;;;34.44;33.10;100550.91;5075890;28;20036;-69
2021/08/30 06:35:58;;;;;;;6.93;3.67;;;;;;;34.59;32.83;100548.72;5068193;28;20127;-69
2021/08/30 06:38:25;;;;;;;8.32;3.30;;;;;;;34.69;32.88;100550.50;5068456;28;20044;-70
2021/08/30 06:40:52;;;;;;;10.45;3.42;;;;;;;34.83;33.02;100556.66;5059224;28;20045;-71
2021/08/30 06:43:25;;;;;;;7.78;3.85;;;;;;;34.98;32.80;100560.78;5072021;28;20041;-69
2021/08/30 06:45:52;;;;;;;9.30;3.30;;;;;;;35.11;32.56;100555.94;5071729;28;20051;-70
2021/08/30 06:48:20;;;;;;;7.43;3.50;;;;;;;35.25;31.91;100565.72;5048269;27;20106;-70
2021/08/30 06:50:49;;;;;;;8.52;3.22;;;;;;;35.37;31.08;100556.34;5065709;28;20052;-69
2021/08/30 06:53:17;;;;;;;7.22;2.88;;;;;;;35.42;30.66;100562.28;5073470;28;20044;-69
2021/08/30 06:55:44;;;;;;;8.70;3.30;;;;;;;35.46;30.53;100556.34;5072539;28;20052;-69
2021/08/30 06:58:15;;;;;;;10.52;3.75;;;;;;;35.60;30.51;100560.56;5072233;28;20047;-70
2021/08/30 07:00:49;;;;;;;7.38;3.42;;;;;;;35.74;30.38;100553.84;5070112;28;20114;-69
2021/08/30 07:03:16;;;;;;;8.27;3.20;;;;;;;35.84;30.52;100558.31;5083049;27;20047;-70
2021/08/30 07:05:50;;;;;;;7.97;3.45;;;;;;;35.87;30.85;100559.94;5073501;28;20044;-70
2021/08/30 07:08:21;;;;;;;10.82;3.85;;;;;;;35.81;31.44;100563.25;5066104;28;20040;-69
2021/08/30 07:10:49;;;;;;;8.52;3.63;;;;;;;35.82;31.57;100565.88;5072198;28;20044;-69
2021/08/30 07:13:16;;;;;;;11.00;3.00;;;;;;;35.95;31.13;100571.94;5072215;28;20397;-70
2021/08/30 07:15:43;;;;;;;9.20;3.75;;;;;;;36.02;31.04;100575.00;5072126;27;20118;-69
2021/08/30 07:18:15;;;;;;;9.82;3.85;;;;;;;36.07;31.33;100574.53;5069534;28;20101;-70
2021/08/30 07:20:43;;;;;;;9.10;3.60;;;;;;;35.93;31.39;100589.59;5071536;28;20052;-69
2021/08/30 07:23:11;;;;;;;7.88;3.47;;;;;;;36.02;31.48;100591.50;5070355;28;20040;-69
2021/08/30 07:25:38;;;;;;;7.53;3.30;;;;;;;36.16;31.05;100601.19;5073213;28;20499;-68
2021/08/30 07:28:06;;;;;;;8.63;3.03;;;;;;;36.39;30.80;100610.03;5073454;28;20044;-69
2021/08/30 07:30:33;;;;;;;10.02;3.53;;;;;;;36.52;30.95;100599.59;5072789;28;20052;-69
2021/08/30 07:33:01;;;;;;;7.72;3.38;;;;;;;36.58;31.07;100610.00;5072086;28;20041;-70
2021/08/30 07:35:30;;;;;;;8.98;3.13;;;;;;;36.64;30.54;100609.41;5071258;28;20075;-70
2021/08/30 07:37:58;;;;;;;9.60;3.50;;;;;;;36.53;30.68;100612.34;5053316;27;20060;-70
2021/08/30 07:40:26;;;;;;;6.90;2.97;;;;;;;36.37;30.75;100609.28;5072848;28;20067;-70
2021/08/30 07:42:53;;;;;;;7.60;3.08;;;;;;;36.33;30.90;100616.97;5070672;28;20049;-70
2021/08/30 07:45:23;;;;;;;8.60;3.85;;;;;;;36.36;31.05;100605.72;5070093;28;20384;-70
2021/08/30 07:47:50;;;;;;;8.02;3.70;;;;;;;36.44;31.08;100621.47;5065652;28;20052;-70
2021/08/30 07:50:19;;;;;;;9.50;3.28;;;;;;;36.41;31.10;100624.50;5071411;28;20040;-70
2021/08/30 07:52:49;;;;;;;10.10;3.45;;;;;;;36.29;31.47;100624.69;5069162;27;20052;-69
2021/08/30 07:55:17;;;;;;;13.98;3.65;;;;;;;36.40;31.98;100623.66;5072298;28;20044;-70
2021/08/30 07:57:45;;;;;;;10.93;4.13;;;;;;;36.55;32.29;100643.34;5067173;28;20051;-69
2021/08/30 08:00:13;;;;;;;8.48;3.25;;;;;;;36.69;32.50;100652.03;5069866;27;20044;-70
2021/08/30 08:02:43;;;;;;;9.52;3.40;;;;;;;36.77;32.43;100648.53;5061315;28;20044;-70
2021/08/30 08:05:13;;;;;;;9.48;3.90;;;;;;;36.94;32.51;100652.44;5072236;28;20098;-70
2021/08/30 08:07:46;;;;;;;9.63;3.77;;;;;;;36.94;32.75;100652.44;5064096;27;20151;-69
2021/08/30 08:10:15;;;;;;;10.18;3.92;;;;;;;37.01;32.70;100651.69;5067321;27;20044;-70
2021/08/30 08:12:48;;;;;;;6.25;3.28;;;;;;;37.02;32.45;100647.91;5063798;28;20044;-70
2021/08/30 08:15:17;;;;;;;11.20;3.60;;;;;;;37.06;32.15;100648.50;5072839;28;20071;-70
2021/08/30 08:17:44;;;;;;;8.85;3.65;;;;;;;37.13;31.80;100654.28;5072163;28;20047;-70
2021/08/30 08:20:13;;;;;;;8.20;3.33;;;;;;;37.25;31.86;100655.84;5043870;28;20048;-70
2021/08/30 08:22:44;;;;;;;9.02;3.47;;;;;;;37.33;31.80;100659.59;5071919;28;20051;-70
2021/08/30 08:25:16;;;;;;;9.85;3.80;;;;;;;37.43;32.00;100659.53;5067004;28;20127;-70
2021/08/30 08:27:49;;;;;;;9.40;3.67;;;;;;;37.55;32.27;100660.22;5066875;28;20049;-70
2021/08/30 08:30:18;;;;;;;8.05;3.80;;;;;;;37.57;31.96;100644.38;5063902;28;20507;-69
2021/08/30 08:32:47;;;;;;;9.10;4.07;;;;;;;37.48;32.46;100654.47;5060290;28;20102;-69
2021/08/30 08:35:16;;;;;;;8.48;3.22;;;;;;;37.61;32.33;100657.78;5065847;28;20404;-70
2021/08/30 08:37:45;;;;;;;7.88;3.35;;;;;;;37.76;31.89;100658.97;5063290;28;20049;-69
2021/08/30 08:40:13;;;;;;;9.05;3.58;;;;;;;37.80;31.76;100659.56;5063512;27;20514;-68
2021/08/30 08:42:52;;;;;;;9.15;4.03;;;;;;;37.74;31.92;100661.03;5068711;28;20048;-70
2021/08/30 08:45:21;;;;;;;9.10;3.45;;;;;;;37.77;32.16;100666.22;5070562;28;20400;-70
2021/08/30 08:47:49;;;;;;;8.55;3.38;;;;;;;37.80;32.13;100663.19;5065767;28;20051;-69
2021/08/30 08:50:21;;;;;;;8.43;3.53;;;;;;;37.76;32.12;100667.25;5072117;28;20060;-70
2021/08/30 08:52:55;;;;;;;9.75;3.47;;;;;;;37.79;32.16;100674.34;5024045;28;20041;-70
2021/08/30 08:55:33;;;;;;;10.18;3.70;;;;;;;37.97;32.12;100677.13;5034518;28;20496;-70
2021/08/30 08:58:08;;;;;;;10.45;3.28;;;;;;;37.97;31.16;100668.88;5048295;28;20040;-70
2021/08/30 09:00:40;;;;;;;8.45;3.50;;;;;;;38.03;31.33;100671.03;5058364;28;20055;-69
2021/08/30 09:03:14;;;;;;;6.30;3.10;;;;;;;37.96;31.88;100672.63;5051382;28;20522;-67
2021/08/30 09:05:42;;;;;;;8.25;3.95;;;;;;;37.91;31.51;100670.34;5051942;28;20329;-69
2021/08/30 09:08:28;;;;;;;8.95;2.92;;;;;;;38.02;31.27;100669.25;5051156;28;20044;-69
2021/08/30 09:10:55;;;;;;;7.30;3.33;;;;;;;38.12;31.27;100664.59;5050768;28;20063;-69
2021/08/30 09:13:29;;;;;;;6.55;3.35;;;;;;;38.27;30.48;100668.53;5042827;28;20065;-69
2021/08/30 09:15:57;;;;;;;5.30;3.08;;;;;;;38.24;30.16;100666.09;5048640;28;20041;-70
2021/08/30 09:18:29;;;;;;;5.88;2.80;;;;;;;38.25;29.73;100657.66;5050626;28;20045;-69
2021/08/30 09:20:58;;;;;;;6.90;3.17;;;;;;;38.12;29.80;100675.63;5046388;28;20504;-69
2021/08/30 09:23:30;;;;;;;12.98;3.65;;;;;;;38.16;29.88;100674.28;5054278;28;20041;-69
2021/08/30 09:26:02;;;;;;;6.60;3.42;;;;;;;38.09;29.75;100667.66;5056613;28;20193;-69
2021/08/30 09:28:36;;;;;;;7.77;3.50;;;;;;;37.95;29.95;100673.66;5059583;28;20060;-69
2021/08/30 09:31:04;;;;;;;7.25;2.97;;;;;;;37.75;29.83;100673.78;5070362;28;20269;-69
2021/08/30 09:33:31;;;;;;;8.65;3.38;;;;;;;37.69;29.56;100679.91;5070452;28;20048;-69
2021/08/30 09:36:00;;;;;;;5.75;2.92;;;;;;;37.38;28.86;100675.66;5069172;28;20064;-69
2021/08/30 09:38:37;;;;;;;6.43;3.53;;;;;;;37.32;28.75;100671.63;5069456;28;20143;-69
2021/08/30 09:41:06;;;;;;;10.25;3.38;;;;;;;37.32;28.64;100676.28;5072215;28;20060;-69
2021/08/30 09:43:36;;;;;;;5.60;3.30;;;;;;;37.36;28.69;100672.19;5070477;28;20037;-69
2021/08/30 09:46:04;;;;;;;6.43;2.90;;;;;;;37.37;28.67;100673.91;5048551;28;20418;-69
2021/08/30 09:48:34;;;;;;;5.85;3.08;;;;;;;37.33;28.05;100672.50;5044215;28;20049;-69
2021/08/30 09:51:04;;;;;;;6.35;3.03;;;;;;;37.23;28.16;100669.75;5049392;28;20045;-69
2021/08/30 09:53:33;;;;;;;9.77;3.47;;;;;;;37.29;28.74;100662.78;5050408;28;20045;-69
2021/08/30 09:56:01;;;;;;;8.70;3.30;;;;;;;37.34;28.64;100660.47;5044361;28;20044;-69
2021/08/30 09:58:30;;;;;;;10.68;3.65;;;;;;;37.30;28.63;100665.38;5042034;28;20167;-70
2021/08/30 10:01:01;;;;;;;6.40;3.03;;;;;;;37.19;28.96;100664.72;5049382;28;20040;-70
2021/08/30 10:03:38;;;;;;;7.07;3.08;;;;;;;37.07;29.04;100653.84;5048416;28;20049;-69
2021/08/30 10:06:09;;;;;;;8.13;2.90;;;;;;;37.04;29.03;100656.88;5069605;28;20056;-69
2021/08/30 10:08:42;;;;;;;7.63;3.10;;;;;;;37.01;29.02;100662.72;5065001;28;20545;-69
2021/08/30 10:11:10;;;;;;;7.90;2.83;;;;;;;37.08;28.64;100649.22;5061250;28;20102;-67
2021/08/30 10:13:41;;;;;;;9.93;3.53;;;;;;;37.03;29.73;100657.91;5069607;28;20040;-67
2021/08/30 10:16:11;;;;;;;8.07;3.53;;;;;;;37.03;30.49;100652.41;5070007;28;20064;-69
2021/08/30 10:18:48;;;;;;;12.43;4.07;;;;;;;37.04;31.91;100662.41;5068393;28;20064;-69
2021/08/30 10:21:16;;;;;;;8.75;3.63;;;;;;;36.82;32.49;100657.25;5067590;28;20044;-69
2021/08/30 10:23:45;;;;;;;9.85;3.38;;;;;;;36.60;33.42;100654.78;5067903;28;20090;-70
2021/08/30 10:26:14;;;;;;;11.10;3.72;;;;;;;36.33;34.19;100652.75;5069567;28;20036;-69
2021/08/30 10:28:45;;;;;;;10.35;3.60;;;;;;;36.36;33.52;100654.34;5069256;28;20048;-69
2021/08/30 10:31:21;;;;;;;10.30;3.72;;;;;;;36.31;33.35;100663.00;5068400;28;20035;-69
2021/08/30 10:33:53;;;;;;;7.80;3.47;;;;;;;36.34;33.53;100658.09;5069996;28;20048;-69
2021/08/30 10:36:22;;;;;;;11.13;3.40;;;;;;;36.14;33.56;100664.56;5067432;28;20102;-70
2021/08/30 10:39:02;;;;;;;12.07;4.05;;;;;;;35.76;34.29;100659.88;5068351;28;20075;-70
2021/08/30 10:41:34;;;;;;;11.50;3.50;;;;;;;35.48;34.38;100660.59;5074935;28;20036;-70
2021/08/30 10:44:07;;;;;;;7.47;3.50;;;;;;;35.36;34.40;100656.22;5069471;28;20059;-70
2021/08/30 10:46:43;;;;;;;12.13;3.75;;;;;;;35.30;34.15;100660.38;5064306;28;20048;-70
2021/08/30 10:49:18;;;;;;;9.00;3.70;;;;;;;35.33;33.97;100662.84;5068862;28;20400;-70
2021/08/30 10:51:48;;;;;;;7.30;3.22;;;;;;;35.63;33.03;100666.59;5069290;28;20045;-69
2021/08/30 10:54:19;;;;;;;9.10;3.30;;;;;;;35.95;32.30;100679.16;5070142;28;20037;-69
2021/08/30 10:57:00;;;;;;;7.57;3.35;;;;;;;36.22;32.43;100673.03;5068210;28;20041;-69
2021/08/30 10:59:29;;;;;;;8.38;3.75;;;;;;;36.45;31.97;100676.34;5069116;28;20102;-69
2021/08/30 11:02:03;;;;;;;10.90;3.65;;;;;;;36.58;31.99;100681.56;5068307;28;20056;-69
2021/08/30 11:04:32;;;;;;;8.05;3.75;;;;;;;36.70;31.64;100674.91;5063285;28;20450;-69
2021/08/30 11:07:00;;;;;;;10.18;3.17;;;;;;;36.80;31.11;100684.03;5070643;28;20048;-69
2021/08/30 11:09:28;;;;;;;7.32;2.97;;;;;;;36.92;30.81;100669.09;5072989;28;20395;-69
2021/08/30 11:11:56;;;;;;;6.28;3.30;;;;;;;37.05;30.26;100674.28;5072129;28;20068;-69
2021/08/30 11:14:23;;;;;;;6.38;3.25;;;;;;;37.19;29.84;100678.47;5071445;28;20036;-70
2021/08/30 11:16:56;;;;;;;9.55;3.75;;;;;;;37.42;28.86;100685.34;5071980;28;20134;-70
2021/08/30 11:19:27;;;;;;;6.70;3.15;;;;;;;37.60;29.20;100679.97;5069255;28;20061;-70
2021/08/30 11:21:58;;;;;;;8.48;3.33;;;;;;;37.74;28.75;100683.09;5072644;28;20131;-69
2021/08/30 11:24:32;;;;;;;7.85;3.47;;;;;;;37.67;28.73;100684.72;5058351;28;20492;-69
2021/08/30 11:27:02;;;;;;;6.45;3.35;;;;;;;37.87;28.81;100686.34;5076186;28;20056;-68
2021/08/30 11:29:33;;;;;;;12.93;3.38;;;;;;;37.97;28.70;100685.41;5085786;28;20093;-69
2021/08/30 11:32:00;;;;;;;9.75;3.33;;;;;;;38.17;28.81;100684.28;5090915;27;20040;-69
2021/08/30 11:34:34;;;;;;;8.38;2.80;;;;;;;38.46;28.59;100687.72;5093106;28;20054;-69
2021/08/30 11:37:04;;;;;;;7.22;3.08;;;;;;;38.50;28.19;100689.16;5089721;28;20360;-69
2021/08/30 11:39:34;;;;;;;6.53;2.97;;;;;;;38.76;27.44;100678.16;5092841;28;20071;-69
2021/08/30 11:42:06;;;;;;;8.07;3.25;;;;;;;38.86;26.96;100683.63;5092675;28;20044;-69